Terminal Aerodrome Forecast
Issued by NWS Shreveport, LA

Home | Current Version | Previous Version | Text Only | Print | Product List | Glossary On
Versions: 1 2 3 4 5 6 7 8 9 10 11 12 13 14 15 16
000
FTUS44 KSHV 231743
TAFELD
TAF
KELD 231743Z 2318/2418 04006KT P6SM BKN030
      TEMPO 2318/2319 SCT030 BKN035
     FM231900 04006KT P6SM BKN035
     FM232100 04005KT P6SM VCSH BKN040
     FM240100 04005KT P6SM SCT045 SCT120 BKN250
     FM240500 04005KT P6SM SCT150 BKN250
     FM241500 05007KT P6SM SCT035 SCT250=

USA.gov is the U.S. government's official web portal to all federal, state and local government web resources and services.